Weather at Reinsvoll Airfield

Public forecast

Using degrees Celsius for public forecast. Weather courtesy of forecast.io.

Closest aviation weather report (METAR) to Reinsvoll Airfield

Closest report is Oslo Gardermoen Airport, 32.8 nm (60.7 km) SSE. Retrieved 2021/04/11 23:20 UTC (37 minutes ago):

ENGM 112320Z 01009KT 6000 -SN SCT004 BKN018 00/M00 Q1014

Closest aviation forecast (TAF) to Reinsvoll Airfield

Closest forecast is Oslo Gardermoen Airport, 32.8 nm (60.7 km) SSE. Retrieved 2021/04/11 18:59 UTC (5 hours ago):

TAF ENGM 111700Z 1118/1218 04012KT 8000 -RASN SCT012 BKN018 TEMPO 1120/1215 2000 -SN VV008 TEMPO 1215/1218 1200 SHSN BKN008 FEW020CB